Ext La Inmaculada, Puerto Rico
Current Conditions -  °F | °C
As of 8:53 PM on Friday 24 Oct 2014 (Local Time) from TJNR Reporting Station
Few Clouds Few Clouds  
Wind Chill: 81°   Ceiling: Unl
Heat Index: 87°   Visibility: 10mi
Dew Point: 76°   Wind: 6mph
Humidity: 85%   Direction: 150°SSE
Pressure: 29.94"   Gusts: NA
Location:  18.1853°N, 65.8667°W
Report Text: TJNR 250053Z AUTO 15005KT 10SM FEW020 27/24 A2994 RMK AO2 SLP137 T02720244 $
Loading
Personal Weather Stations






























Interactive Weather Map
Tropical Storm Tracking
New forecast layout! Learn more

10-Day Weather Forecast

Advertisements
Track Severe Weather on mobile